Latest Coastal Weather Observations for Neptune Island

IDT60701

Issued at 5:55 am EDT Saturday 25 October 2014 (issued every 10 minutes, with the page automatically refreshed every 10 minutes)

About coastal observations | Map of coastal stations | Coastal observations for TAS | Marine services | Other Formats
Station Details ID: 018115 Name: NEPTUNE ISLAND Lat: -35.34 Lon: 136.12 Height: 32.0 m
Data from the previous 72 hours. | See also: Recent months at Neptune Island
Date/Time
EDT
Temp

°C
Wind Pressure Rain
since 9am
mm
Weather Cloud Vis
km
Sea
Height
m
Swell
Dir
 
Speed
knots
Gust
knots
hPa Trend Height
m
Period
s
Dir
25/05:30am 15.0 SSE 11 13 1016.0 - 0.0 - - - - - - -
25/05:00am 15.0 SSE 11 14 1015.8 - 0.0 - - - - - - -
25/04:30am 15.2 SSE 10 12 1015.9 - 0.0 - - - - - - -
25/04:00am 15.1 SSE 9 12 1015.6 - 0.0 - - - - - - -
25/03:30am 15.2 S 12 14 1015.7 - 0.0 - - - - - - -
25/03:00am 15.1 S 12 15 1015.7 - 0.0 - - - - - - -
25/02:30am 15.1 S 12 15 1015.6 - 0.0 - - - - - - -
25/02:00am 15.1 S 12 14 1015.9 - 0.0 - - - - - - -
25/01:30am 15.1 S 11 13 1016.1 - 0.0 - - - - - - -
25/01:00am 15.2 SSE 11 13 1016.1 - 0.0 - - - - - - -
25/12:30am 15.2 SSE 11 13 1016.0 - 0.0 - - - - - - -
25/12:00am 15.2 SSE 12 15 1016.2 - 0.0 - - - - - - -
 
Date/Time
EDT
Temp

°C
Wind Pressure Rain
since 9am
mm
Weather Cloud Vis
km
Sea
Height
m
Swell
Dir
 
Speed
knots
Gust
knots
hPa Trend Height
m
Period
s
Dir
24/11:30pm 15.2 SSE 14 16 1016.3 - 0.0 - - - - - - -
24/11:00pm 15.3 SSE 16 19 1016.3 - 0.0 - - - - - - -
24/10:30pm 15.3 S 18 20 1016.2 - 0.0 - - - - - - -
24/10:00pm 15.5 S 17 20 1015.9 - 0.0 - - - - - - -
24/09:30pm 15.5 S 18 20 1015.4 - 0.0 - - - - - - -
24/09:00pm 15.4 S 17 19 1014.9 - 0.0 - - - - - - -
24/08:30pm 15.4 S 15 17 1014.8 - 0.0 - - - - - - -
24/08:00pm 15.4 S 15 19 1014.6 - 0.0 - - - - - - -
24/07:30pm 15.6 S 16 18 1014.4 - 0.0 - - - - - - -
24/07:00pm 16.0 S 15 17 1014.1 - 0.0 - - - - - - -
24/06:30pm 16.3 S 14 16 1013.9 - 0.0 - - - - - - -
24/06:00pm 16.3 S 14 16 1013.8 - 0.0 - - - - - - -
24/05:30pm 16.7 S 15 17 1013.5 - 0.0 - - - - - - -
24/05:00pm 17.1 S 15 18 1013.4 - 0.0 - - - - - - -
24/04:30pm 18.5 S 14 16 1013.4 - 0.0 - - - - - - -
24/04:00pm 19.6 SSW 12 15 1013.5 - 0.0 - - - - - - -
24/03:30pm 20.0 SSW 11 13 1013.6 - 0.0 - - - - - - -
24/03:00pm 20.3 SSW 11 13 1013.8 - 0.0 - - - - - - -
24/02:30pm 19.9 SSW 8 9 1013.8 - 0.0 - - - - - - -
24/02:00pm 19.5 SW 9 11 1013.9 - 0.0 - - - - - - -
24/01:30pm 19.7 WSW 10 11 1013.9 - 0.0 - - - - - - -
24/01:00pm 19.2 WSW 8 9 1013.9 - 0.0 - - - - - - -
24/12:30pm 19.2 W 6 8 1013.9 - 0.0 - - - - - - -
24/12:00pm 19.2 W 5 7 1013.9 - 0.0 - - - - - - -
24/11:30am 19.0 WNW 4 5 1013.8 - 0.0 - - - - - - -
24/11:00am 18.3 NW 5 6 1014.0 - 0.0 - - - - - - -
24/10:30am 17.9 W 4 6 1013.9 - 0.0 - - - - - - -
24/10:00am 17.2 NW 4 6 1013.7 - 0.0 - - - - - - -
24/09:30am 17.2 N 6 7 1013.6 - 0.0 - - - - - - -
24/09:00am 16.9 N 5 6 1013.6 - 0.0 - - - - - - -
24/08:30am 16.7 N 6 8 1013.2 - 0.0 - - - - - - -
24/08:00am 16.2 N 8 9 1013.1 - 0.0 - - - - - - -
24/07:30am 15.5 N 6 7 1012.6 - 0.0 - - - - - - -
24/07:00am 15.4 N 7 7 1012.4 - 0.0 - - - - - - -
24/06:30am 15.5 N 8 9 1011.8 - 0.0 - - - - - - -
24/06:00am 15.6 N 10 11 1011.8 - 0.0 - - - - - - -
24/05:30am 15.9 N 14 16 1011.9 - 0.0 - - - - - - -
24/05:00am 15.8 N 14 16 1011.8 - 0.0 - - - - - - -
24/04:30am 15.7 N 16 18 1011.3 - 0.0 - - - - - - -
24/04:00am 15.5 NNE 16 19 1011.3 - 0.0 - - - - - - -
24/03:30am 15.5 NNE 15 18 1011.4 - 0.0 - - - - - - -
24/03:00am 15.4 NE 15 19 1011.2 - 0.0 - - - - - - -
24/02:30am 15.4 NE 14 17 1011.9 - 0.0 - - - - - - -
24/02:00am 15.4 NE 11 14 1012.5 - 0.0 - - - - - - -
24/01:30am 15.3 NNE 8 11 1013.4 - 0.0 - - - - - - -
24/01:00am 15.4 NNE 7 10 1014.0 - 0.0 - - - - - - -
24/12:30am 15.4 NE 6 8 1014.3 - 0.0 - - - - - - -
24/12:00am 15.1 E 7 8 1014.4 - 0.0 - - - - - - -
 
Date/Time
EDT
Temp

°C
Wind Pressure Rain
since 9am
mm
Weather Cloud Vis
km
Sea
Height
m
Swell
Dir
 
Speed
knots
Gust
knots
hPa Trend Height
m
Period
s
Dir
23/11:30pm 15.3 ESE 8 10 1014.4 - 0.0 - - - - - - -
23/11:00pm 15.3 ESE 9 11 1014.7 - 0.0 - - - - - - -
23/10:30pm 15.4 SE 10 12 1014.9 - 0.0 - - - - - - -
23/10:00pm 15.4 SSE 9 11 1015.1 - 0.0 - - - - - - -
23/09:30pm 15.2 SSE 10 11 1014.9 - 0.0 - - - - - - -
23/09:00pm 15.2 SSE 9 11 1015.0 - 0.0 - - - - - - -
23/08:30pm 15.3 S 9 11 1015.1 - 0.0 - - - - - - -
23/08:00pm 15.5 S 10 12 1014.9 - 0.0 - - - - - - -
23/07:30pm 15.6 S 9 10 1015.4 - 0.0 - - - - - - -
23/07:00pm 16.9 SW 8 10 1015.6 - 0.0 - - - - - - -
23/06:30pm 16.8 WSW 8 9 1015.4 - 0.0 - - - - - - -
23/06:00pm 17.2 WSW 9 10 1015.6 - 0.0 - - - - - - -
23/05:30pm 16.7 WSW 7 9 1015.6 - 0.0 - - - - - - -
23/05:00pm 17.1 SSW 5 7 1015.5 - 0.0 - - - - - - -
23/04:30pm 16.8 SSW 4 5 1015.9 - 0.0 - - - - - - -
23/04:00pm 16.9 S 4 5 1016.1 - 0.0 - - - - - - -
23/03:30pm 17.3 ESE 6 8 1015.9 - 0.0 - - - - - - -
23/03:00pm 17.2 E 8 10 1016.1 - 0.0 - - - - - - -
23/02:30pm 17.5 E 7 9 1016.9 - 0.0 - - - - - - -
23/02:00pm 16.7 E 8 10 1017.2 - 0.0 - - - - - - -
23/01:30pm 16.3 E 9 11 1017.3 - 0.0 - - - - - - -
23/01:00pm 16.6 E 9 12 1017.7 - 0.0 - - - - - - -
23/12:30pm 16.6 E 10 13 1017.8 - 0.0 - - - - - - -
23/12:00pm 16.4 E 10 13 1018.1 - 0.0 - - - - - - -
23/11:30am 15.9 E 10 11 1018.2 - 0.0 - - - - - - -
23/11:00am 15.7 ESE 11 13 1018.5 - 0.0 - - - - - - -
23/10:30am 15.2 ESE 9 11 1018.9 - 0.0 - - - - - - -
23/10:00am 15.1 ESE 11 13 1018.9 - 0.0 - - - - - - -
23/09:30am 15.0 ESE 11 14 1018.8 - 0.0 - - - - - - -
23/09:00am 14.6 ESE 11 14 1019.0 - 0.0 - - - - - - -
23/08:30am 14.5 ESE 11 14 1018.9 - 0.0 - - - - - - -
23/08:00am 14.3 ESE 9 13 1018.9 - 0.0 - - - - - - -
23/07:30am 14.1 ESE 11 15 1018.8 - 0.0 - - - - - - -
23/07:00am 14.1 ESE 10 13 1018.6 - 0.0 - - - - - - -
23/06:30am 14.0 E 10 14 1018.6 - 0.0 - - - - - - -
23/06:00am 14.1 SE 13 16 1018.7 - 0.0 - - - - - - -
23/05:30am 14.0 SE 14 16 1018.5 - 0.0 - - - - - - -
23/05:00am 14.2 ESE 11 15 1018.9 - 0.0 - - - - - - -
23/04:30am 14.2 ESE 11 15 1019.3 - 0.0 - - - - - - -
23/04:00am 14.0 ESE 13 17 1018.9 - 0.0 - - - - - - -
23/03:30am 14.1 ESE 14 20 1019.1 - 0.0 - - - - - - -
23/03:00am 14.0 SE 15 19 1019.6 - 0.0 - - - - - - -
23/02:30am 14.0 SE 17 20 1020.0 - 0.0 - - - - - - -
23/02:00am 14.0 SE 16 23 1020.4 - 0.0 - - - - - - -
23/01:30am 13.9 SE 17 21 1020.7 - 0.0 - - - - - - -
23/01:00am 14.0 SE 15 19 1021.1 - 0.0 - - - - - - -
23/12:30am 14.1 SE 16 21 1021.3 - 0.0 - - - - - - -
23/12:00am 13.9 SE 17 21 1021.3 - 0.0 - - - - - - -
 
Date/Time
EDT
Temp

°C
Wind Pressure Rain
since 9am
mm
Weather Cloud Vis
km
Sea
Height
m
Swell
Dir
 
Speed
knots
Gust
knots
hPa Trend Height
m
Period
s
Dir
22/11:30pm 14.4 SE 16 19 1021.3 - 0.0 - - - - - - -
22/11:00pm 14.2 SSE 17 24 1021.4 - 0.0 - - - - - - -
22/10:30pm 14.3 SSE 17 23 1021.2 - 0.0 - - - - - - -
22/10:00pm 14.2 SSE 19 25 1021.3 - 0.0 - - - - - - -
22/09:30pm 14.3 SSE 17 22 1020.9 - 0.0 - - - - - - -
22/09:00pm 14.1 SSE 19 25 1020.8 - 0.0 - - - - - - -
22/08:30pm 14.4 SSE 19 25 1020.6 - 0.0 - - - - - - -
22/08:00pm 14.2 S 20 24 1020.4 - 0.0 - - - - - - -
22/07:30pm 14.3 SSE 21 26 1020.2 - 0.0 - - - - - - -
22/07:00pm 14.6 S 21 26 1020.0 - 0.0 - - - - - - -
22/06:30pm 14.7 SSE 20 25 1019.9 - 0.0 - - - - - - -
22/06:00pm 14.7 SSE 20 25 1019.9 - 0.0 - - - - - - -
22/05:30pm 14.9 SSE 22 26 1019.6 - 0.0 - - - - - - -
22/05:00pm 15.1 S 24 29 1019.4 - 0.0 - - - - - - -
22/04:30pm 15.2 S 23 27 1019.5 - 0.0 - - - - - - -
22/04:00pm 15.2 S 23 27 1019.8 - 0.0 - - - - - - -
22/03:30pm 15.5 S 22 27 1020.0 - 0.0 - - - - - - -
22/03:00pm 15.3 S 22 26 1020.0 - 0.0 - - - - - - -
22/02:30pm 15.2 S 22 25 1020.2 - 0.0 - - - - - - -
22/02:00pm 14.6 S 21 26 1020.0 - 0.0 - - - - - - -
22/01:30pm 14.8 S 22 26 1020.2 - 0.0 - - - - - - -
22/01:00pm 14.5 S 23 28 1020.1 - 0.0 - - - - - - -
22/12:30pm 14.4 S 22 27 1020.1 - 0.0 - - - - - - -
22/12:00pm 14.3 S 21 26 1020.1 - 0.0 - - - - - - -
22/11:30am 14.0 S 24 28 1020.0 - 0.0 - - - - - - -
22/11:00am 14.0 S 24 30 1019.9 - 0.0 - - - - - - -
22/10:30am 14.1 S 25 29 1019.8 - 0.0 - - - - - - -
22/10:00am 14.2 S 21 27 1019.4 - 0.0 - - - - - - -
22/09:30am 14.4 S 20 24 1019.2 - 0.0 - - - - - - -
22/09:00am 14.2 S 21 25 1019.0 - 0.0 - - - - - - -
22/08:30am 14.1 S 20 24 1018.9 - 0.0 - - - - - - -
22/08:00am 13.8 S 21 26 1018.6 - 0.0 - - - - - - -
22/07:30am 14.1 S 20 24 1018.3 - 0.0 - - - - - - -
22/07:00am 14.1 S 24 26 1017.9 - 0.0 - - - - - - -
22/06:30am 14.1 S 22 27 1017.6 - 0.0 - - - - - - -

Other Formats:

Comma delimited format used in spreadsheet applications
http://www.bom.gov.au/fwo/IDT60701/IDT60701.94804.axf

JavaScript Object Notation format (JSON) in row-major order
http://www.bom.gov.au/fwo/IDT60701/IDT60701.94804.json